Terminal Aerodrome Forecast
Issued by NWS

Home | Current Version | Previous Version | Text Only | Print | Product List | Glossary Off
Versions: 1 2 3 4 5 6 7 8 9 10 11 12 13 14 15 16 17

000
FTUS43 KTOP 021100
TAFMHK
TAF
KMHK 021120Z 0212/0312 14005KT P6SM SCT090
      TEMPO 0212/0214 5SM BR
     FM021800 15012KT P6SM BKN200
     FM022300 14011G17KT 6SM -DZ BR OVC020
     FM030200 17015G25KT 4SM -SHRA BR OVC009=

USA.gov is the U.S. government's official web portal to all federal, state and local government web resources and services.